createdAt,value
2019-05-02T00:01:38.572Z,12.67
2019-05-02T00:04:12.418Z,12.47
2019-05-02T00:06:42.917Z,12.40
2019-05-02T00:09:11.255Z,12.53
2019-05-02T00:11:40.628Z,13.93
2019-05-02T00:14:10.702Z,13.73
2019-05-02T00:16:40.127Z,13.97
2019-05-02T00:19:13.982Z,14.73
2019-05-02T00:21:42.963Z,14.27
2019-05-02T00:24:13.903Z,14.40
2019-05-02T00:26:43.182Z,14.30
2019-05-02T00:29:12.413Z,14.97
2019-05-02T00:31:46.307Z,15.53
2019-05-02T00:34:12.601Z,15.33
2019-05-02T00:36:41.765Z,15.33
2019-05-02T00:39:13.814Z,16.23
2019-05-02T00:41:41.925Z,16.30
2019-05-02T00:44:12.249Z,17.20
2019-05-02T00:46:41.718Z,16.77
2019-05-02T00:49:11.053Z,17.70
2019-05-02T00:51:40.370Z,18.50
2019-05-02T00:54:09.615Z,19.10
2019-05-02T00:56:40.250Z,21.03
2019-05-02T00:59:09.798Z,21.57
2019-05-02T01:02:10.317Z,20.13
2019-05-02T01:04:41.447Z,20.87
2019-05-02T01:07:11.182Z,20.27
2019-05-02T01:09:42.261Z,20.33
2019-05-02T01:12:11.413Z,19.27
2019-05-02T01:14:40.642Z,18.87
2019-05-02T01:17:09.831Z,19.80
2019-05-02T01:19:39.153Z,20.73
2019-05-02T01:22:10.712Z,19.60
2019-05-02T01:24:41.527Z,23.10
2019-05-02T01:27:36.022Z,20.83
2019-05-02T01:30:16.114Z,20.73
2019-05-02T01:32:56.191Z,19.77
2019-05-02T01:35:38.601Z,21.17
2019-05-02T01:38:16.013Z,20.73
2019-05-02T01:40:53.101Z,22.87
2019-05-02T01:43:25.455Z,21.83
2019-05-02T01:45:55.194Z,22.57
2019-05-02T01:48:24.775Z,22.80
2019-05-02T01:50:54.216Z,21.43
2019-05-02T01:53:23.556Z,22.40
2019-05-02T01:55:57.369Z,22.50
2019-05-02T01:58:23.817Z,22.00
2019-05-02T02:00:53.132Z,23.87
2019-05-02T02:03:22.734Z,24.07
2019-05-02T02:05:52.038Z,24.63
2019-05-02T02:08:21.298Z,24.43
2019-05-02T02:10:55.877Z,23.63
2019-05-02T02:13:21.433Z,25.67
2019-05-02T02:15:50.701Z,26.60
2019-05-02T02:18:22.092Z,26.13
2019-05-02T02:21:20.304Z,28.00
2019-05-02T02:23:55.891Z,28.33
2019-05-02T02:26:25.511Z,28.53
2019-05-02T02:28:54.784Z,27.67
2019-05-02T02:31:24.124Z,28.53
2019-05-02T02:33:53.364Z,27.23
2019-05-02T02:36:31.284Z,27.13
2019-05-02T02:38:53.676Z,28.03
2019-05-02T02:41:22.998Z,28.20
2019-05-02T02:44:20.375Z,28.00
2019-05-02T02:46:49.883Z,26.20
2019-05-02T02:49:21.692Z,26.90
2019-05-02T02:51:50.030Z,25.60
2019-05-02T02:54:19.342Z,26.90
2019-05-02T02:56:48.546Z,26.13
2019-05-02T02:59:19.670Z,24.87
2019-05-02T03:01:48.704Z,23.93
2019-05-02T03:04:17.967Z,24.60
2019-05-02T03:06:47.313Z,25.10
2019-05-02T03:09:20.163Z,22.47
2019-05-02T03:12:06.518Z,23.27
2019-05-02T03:14:40.818Z,23.53
2019-05-02T03:17:09.268Z,23.47
2019-05-02T03:19:38.537Z,23.67
2019-05-02T03:22:07.851Z,23.63
2019-05-02T03:24:44.276Z,24.53
2019-05-02T03:27:08.348Z,22.97
2019-05-02T03:29:44.335Z,21.33
2019-05-02T03:32:16.200Z,22.43
2019-05-02T03:34:53.046Z,22.10
2019-05-02T03:37:13.848Z,22.93
2019-05-02T03:39:49.759Z,21.17
2019-05-02T03:42:14.200Z,21.77
2019-05-02T03:44:55.267Z,21.20
2019-05-02T03:47:14.562Z,21.50
2019-05-02T03:49:48.664Z,22.27
2019-05-02T03:52:14.883Z,22.17
2019-05-02T03:54:50.281Z,21.07
2019-05-02T03:57:15.551Z,20.73
2019-05-02T03:59:44.850Z,19.37
2019-05-02T04:02:20.278Z,20.97
2019-05-02T04:04:54.263Z,20.83
2019-05-02T04:07:20.266Z,20.53
2019-05-02T04:09:49.736Z,19.50
2019-05-02T04:12:21.869Z,19.53
2019-05-02T04:14:55.625Z,20.17
2019-05-02T04:17:22.123Z,20.30
2019-05-02T04:19:51.501Z,19.37
2019-05-02T04:22:21.556Z,20.60
2019-05-02T04:24:54.578Z,18.93
2019-05-02T04:27:27.909Z,19.93
2019-05-02T04:29:52.857Z,18.57
2019-05-02T04:32:22.213Z,19.60
2019-05-02T04:34:55.060Z,18.90
2019-05-02T04:37:22.470Z,18.57
2019-05-02T04:39:53.757Z,19.73
2019-05-02T04:42:23.370Z,20.57
2019-05-02T04:45:12.864Z,20.03
2019-05-02T04:47:23.904Z,20.40
2019-05-02T04:49:53.222Z,21.90
2019-05-02T04:52:22.576Z,21.77
2019-05-02T04:54:51.895Z,21.43
2019-05-02T04:57:27.143Z,22.93
2019-05-02T05:00:02.494Z,23.43
2019-05-02T05:02:34.303Z,22.33
2019-05-02T05:04:54.072Z,22.77
2019-05-02T05:07:23.740Z,23.00
2019-05-02T05:09:58.203Z,21.80
2019-05-02T05:12:23.916Z,19.80
2019-05-02T05:14:53.240Z,19.47
2019-05-02T05:17:25.189Z,18.67
2019-05-02T05:19:53.337Z,18.97
2019-05-02T05:22:22.682Z,18.00
2019-05-02T05:25:01.407Z,17.17
2019-05-02T05:27:30.672Z,16.97
2019-05-02T05:30:07.925Z,15.70
2019-05-02T05:32:30.892Z,14.97
2019-05-02T05:35:03.197Z,13.23
2019-05-02T05:37:31.117Z,12.73
2019-05-02T05:40:00.712Z,13.77
2019-05-02T05:42:33.210Z,12.97
2019-05-02T05:45:03.674Z,11.87
2019-05-02T05:47:31.976Z,10.93
2019-05-02T05:50:01.470Z,11.20
2019-05-02T05:52:33.027Z,10.90
2019-05-02T05:55:04.920Z,10.90
2019-05-02T05:57:33.388Z,10.87
2019-05-02T06:00:08.366Z,10.17
2019-05-02T06:02:52.343Z,9.97
2019-05-02T06:05:07.788Z,9.23
2019-05-02T06:07:41.924Z,9.50
2019-05-02T06:10:08.300Z,9.30
2019-05-02T06:12:39.016Z,8.50
2019-05-02T06:15:09.102Z,8.47
2019-05-02T06:17:38.394Z,8.10
2019-05-02T06:20:08.249Z,7.50
2019-05-02T06:22:37.682Z,8.40
2019-05-02T06:25:09.472Z,7.60
2019-05-02T06:27:38.979Z,7.70
2019-05-02T06:30:08.827Z,7.10
2019-05-02T06:32:38.070Z,7.40
2019-05-02T06:35:08.944Z,7.30
2019-05-02T06:37:40.594Z,6.80
2019-05-02T06:40:09.519Z,6.27
2019-05-02T06:42:39.061Z,6.33
2019-05-02T06:45:09.402Z,6.47
2019-05-02T06:47:41.714Z,5.97
2019-05-02T06:50:10.237Z,6.40
2019-05-02T06:52:39.567Z,6.03
2019-05-02T06:55:10.014Z,5.93
2019-05-02T06:57:39.367Z,6.00
2019-05-02T07:00:10.670Z,6.13
2019-05-02T07:02:39.990Z,6.53
2019-05-02T07:05:09.221Z,6.53
2019-05-02T07:07:38.494Z,7.00
2019-05-02T07:10:08.481Z,6.67
2019-05-02T07:12:37.727Z,6.60
2019-05-02T07:15:10.844Z,7.33
2019-05-02T07:17:42.273Z,6.60
2019-05-02T07:20:11.953Z,5.90
2019-05-02T07:22:41.408Z,6.70
2019-05-02T07:25:11.227Z,6.40
2019-05-02T07:27:40.517Z,6.70
2019-05-02T07:30:11.680Z,5.80
2019-05-02T07:32:40.928Z,7.13
2019-05-02T07:35:10.803Z,7.20
2019-05-02T07:37:43.964Z,6.27
2019-05-02T07:40:12.154Z,6.63
2019-05-02T07:42:43.178Z,6.77
2019-05-02T07:45:12.660Z,6.57
2019-05-02T07:47:42.514Z,6.60
2019-05-02T07:50:12.581Z,6.10
2019-05-02T07:52:41.891Z,6.23
2019-05-02T07:55:11.341Z,5.90
2019-05-02T07:57:41.013Z,6.33
2019-05-02T08:00:11.136Z,6.63
2019-05-02T08:02:40.465Z,6.30
2019-05-02T08:05:09.992Z,7.47
2019-05-02T08:07:39.250Z,6.43
2019-05-02T08:10:09.066Z,6.23
2019-05-02T08:12:39.767Z,6.17
2019-05-02T08:15:13.325Z,6.80
2019-05-02T08:17:40.235Z,5.93
2019-05-02T08:20:13.552Z,6.63
2019-05-02T08:22:43.947Z,6.60
2019-05-02T08:25:11.718Z,7.00
2019-05-02T08:27:56.160Z,6.43
2019-05-02T08:30:28.847Z,7.00
2019-05-02T08:32:58.171Z,6.60
2019-05-02T08:35:28.247Z,6.03
2019-05-02T08:37:57.891Z,6.77
2019-05-02T08:40:27.303Z,7.37
2019-05-02T08:42:56.944Z,7.77
2019-05-02T08:45:26.795Z,6.90
2019-05-02T08:48:00.182Z,7.37
2019-05-02T08:50:31.529Z,7.70
2019-05-02T08:52:58.205Z,7.20
2019-05-02T08:55:29.912Z,7.40
2019-05-02T08:57:58.683Z,7.27
2019-05-02T09:00:32.254Z,8.63
2019-05-02T09:03:02.737Z,7.77
2019-05-02T09:05:30.074Z,7.47
2019-05-02T09:07:59.448Z,9.17
2019-05-02T09:10:28.706Z,9.53
2019-05-02T09:12:57.989Z,12.17
2019-05-02T09:15:27.436Z,9.43
2019-05-02T09:17:56.848Z,9.53
2019-05-02T09:20:26.184Z,10.00
2019-05-02T09:22:56.127Z,11.77
2019-05-02T09:25:25.760Z,9.93
2019-05-02T09:27:55.127Z,11.13
2019-05-02T09:30:25.969Z,10.80
2019-05-02T09:32:57.321Z,11.73
2019-05-02T09:35:26.246Z,10.63
2019-05-02T09:37:55.497Z,9.13
2019-05-02T09:40:24.841Z,8.80
2019-05-02T09:42:58.509Z,9.40
2019-05-02T09:45:33.472Z,9.03
2019-05-02T09:48:07.114Z,9.40
2019-05-02T09:50:34.802Z,9.33
2019-05-02T09:53:03.869Z,9.80
2019-05-02T09:55:33.171Z,11.10
2019-05-02T09:58:03.006Z,12.80
2019-05-02T10:00:57.287Z,10.50
2019-05-02T10:03:26.680Z,10.50
2019-05-02T10:05:56.010Z,9.63
2019-05-02T10:08:25.440Z,9.20
2019-05-02T10:10:54.675Z,9.70
2019-05-02T10:13:23.922Z,9.57
2019-05-02T10:15:53.582Z,9.17
2019-05-02T10:18:25.543Z,9.00
2019-05-02T10:20:54.124Z,9.33
2019-05-02T10:23:23.874Z,10.17
2019-05-02T10:25:53.161Z,9.53
2019-05-02T10:28:23.008Z,9.80
2019-05-02T10:30:56.442Z,9.33
2019-05-02T10:33:23.411Z,9.43
2019-05-02T10:35:52.784Z,10.57
2019-05-02T10:38:24.081Z,9.67
2019-05-02T10:41:01.342Z,8.80
2019-05-02T10:43:24.908Z,9.07
2019-05-02T10:46:01.422Z,10.00
2019-05-02T10:48:33.005Z,10.47
2019-05-02T10:51:25.330Z,9.40
2019-05-02T10:53:52.706Z,10.70
2019-05-02T10:56:22.426Z,10.40
2019-05-02T10:58:52.336Z,9.97
2019-05-02T11:01:23.655Z,10.30
2019-05-02T11:03:53.319Z,9.03
2019-05-02T11:06:22.632Z,9.57
2019-05-02T11:08:52.512Z,9.30
2019-05-02T11:11:22.708Z,9.40
2019-05-02T11:14:06.656Z,8.93
2019-05-02T11:16:56.835Z,7.77
2019-05-02T11:19:42.481Z,8.80
2019-05-02T11:22:12.192Z,8.70
2019-05-02T11:24:41.847Z,7.87
2019-05-02T11:27:12.782Z,7.90
2019-05-02T11:29:42.558Z,8.50
2019-05-02T11:32:12.777Z,8.07
2019-05-02T11:34:42.363Z,8.73
2019-05-02T11:37:12.233Z,8.10
2019-05-02T11:39:46.152Z,9.60
2019-05-02T11:42:17.776Z,9.73
2019-05-02T11:44:44.720Z,9.00
2019-05-02T11:47:17.248Z,8.27
2019-05-02T11:49:46.832Z,10.03
2019-05-02T11:52:15.965Z,10.07
2019-05-02T11:54:48.467Z,9.53
2019-05-02T11:57:21.036Z,9.93
2019-05-02T11:59:48.133Z,9.50
2019-05-02T12:02:56.264Z,9.50
2019-05-02T12:05:26.651Z,9.30
2019-05-02T12:07:55.306Z,8.90
2019-05-02T12:10:27.930Z,9.77
2019-05-02T12:12:55.634Z,9.40
2019-05-02T12:15:24.938Z,9.20
2019-05-02T12:17:54.288Z,9.40
2019-05-02T12:20:23.766Z,9.40
2019-05-02T12:22:53.172Z,9.03
2019-05-02T12:25:22.443Z,8.07
2019-05-02T12:27:52.742Z,8.83
2019-05-02T12:30:22.858Z,7.60
2019-05-02T12:32:53.116Z,7.80
2019-05-02T12:35:22.975Z,8.93
2019-05-02T12:37:55.176Z,8.10
2019-05-02T12:40:23.676Z,8.60
2019-05-02T12:42:52.916Z,9.10
2019-05-02T12:45:22.236Z,8.53
2019-05-02T12:47:52.293Z,8.93
2019-05-02T12:50:45.511Z,8.93
2019-05-02T12:53:14.934Z,8.53
2019-05-02T12:55:44.305Z,8.13
2019-05-02T12:58:13.626Z,9.43
2019-05-02T13:00:43.281Z,9.43
2019-05-02T13:03:31.777Z,9.63
2019-05-02T13:06:02.998Z,10.03
2019-05-02T13:08:34.338Z,9.50
2019-05-02T13:11:18.075Z,9.03
2019-05-02T13:13:47.339Z,9.60
2019-05-02T13:16:16.703Z,10.17
2019-05-02T13:18:45.980Z,9.53
2019-05-02T13:21:20.785Z,9.18
2019-05-02T13:23:54.595Z,9.00
2019-05-02T13:26:27.087Z,9.43
2019-05-02T13:28:54.909Z,8.97
2019-05-02T13:31:43.193Z,8.93
2019-05-02T13:34:31.956Z,8.40
2019-05-02T13:37:02.928Z,8.63
2019-05-02T13:39:43.735Z,7.63
2019-05-02T13:42:13.174Z,7.93
2019-05-02T13:44:49.412Z,7.97
2019-05-02T13:47:21.872Z,7.47
2019-05-02T13:49:54.814Z,7.87
2019-05-02T13:52:22.730Z,8.27
2019-05-02T13:54:52.320Z,8.30
2019-05-02T13:57:21.919Z,7.53
2019-05-02T13:59:52.579Z,7.70
2019-05-02T14:02:42.665Z,7.65
2019-05-02T14:05:13.262Z,9.28
2019-05-02T14:07:48.403Z,7.63
2019-05-02T14:10:34.111Z,7.37
2019-05-02T14:13:03.196Z,7.47
2019-05-02T14:15:36.956Z,7.47
2019-05-02T14:18:06.214Z,7.17
2019-05-02T14:20:37.406Z,7.33
2019-05-02T14:23:06.612Z,7.53
2019-05-02T14:25:35.956Z,7.60
2019-05-02T14:28:05.245Z,7.40
2019-05-02T14:30:39.390Z,8.20
2019-05-02T14:33:11.763Z,8.15
2019-05-02T14:35:42.609Z,8.00
2019-05-02T14:38:15.870Z,10.98
2019-05-02T14:41:14.818Z,8.33
2019-05-02T14:43:55.482Z,8.03
2019-05-02T14:46:35.367Z,8.43
2019-05-02T14:48:57.435Z,8.30
2019-05-02T14:51:27.989Z,7.43
2019-05-02T14:54:02.556Z,8.57
2019-05-02T14:56:47.787Z,8.93
2019-05-02T14:59:19.644Z,9.48
2019-05-02T15:01:50.279Z,8.85
2019-05-02T15:04:19.516Z,7.42
2019-05-02T15:06:48.775Z,8.97
2019-05-02T15:09:24.813Z,7.72
2019-05-02T15:11:58.436Z,7.33
2019-05-02T15:14:33.088Z,7.90
2019-05-02T15:17:02.877Z,7.28
2019-05-02T15:19:33.253Z,7.17
2019-05-02T15:22:02.911Z,6.72
2019-05-02T15:24:36.160Z,7.07
2019-05-02T15:27:11.493Z,6.83
2019-05-02T15:29:34.062Z,7.83
2019-05-02T15:32:14.896Z,7.37
2019-05-02T15:35:02.648Z,7.65
2019-05-02T15:37:33.169Z,7.05
2019-05-02T15:42:35.766Z,6.92
2019-05-02T15:45:08.779Z,8.27
2019-05-02T15:47:41.587Z,7.90
2019-05-02T15:50:09.375Z,7.73
2019-05-02T15:52:41.944Z,8.33
2019-05-02T15:55:11.851Z,8.23
2019-05-02T15:57:43.742Z,7.93
2019-05-02T16:00:21.912Z,7.63
2019-05-02T16:02:46.303Z,7.80
2019-05-02T16:05:15.689Z,7.70
2019-05-02T16:07:46.654Z,7.93
2019-05-02T16:10:16.106Z,8.17
2019-05-02T16:12:47.029Z,8.73
2019-05-02T16:15:21.526Z,8.90
2019-05-02T16:17:47.407Z,10.30
2019-05-02T16:20:24.054Z,7.90
2019-05-02T16:22:53.371Z,7.93
2019-05-02T16:25:24.522Z,9.63
2019-05-02T16:27:57.537Z,8.30
2019-05-02T16:30:25.208Z,8.27
2019-05-02T16:32:57.003Z,7.30
2019-05-02T16:35:27.308Z,8.00
2019-05-02T16:37:56.640Z,7.37
2019-05-02T16:40:30.152Z,6.90
2019-05-02T16:43:00.174Z,8.17
2019-05-02T16:45:29.486Z,7.10
2019-05-02T16:48:00.501Z,8.23
2019-05-02T16:50:35.249Z,8.17
2019-05-02T16:53:02.288Z,8.57
2019-05-02T16:55:32.731Z,14.50
2019-05-02T16:58:06.971Z,9.83
2019-05-02T17:00:36.876Z,9.90
2019-05-02T17:03:04.482Z,8.13
2019-05-02T17:05:34.217Z,8.37
2019-05-02T17:08:22.620Z,9.57
2019-05-02T17:10:56.806Z,8.90
2019-05-02T17:13:27.557Z,11.33
2019-05-02T17:15:57.162Z,10.23
2019-05-02T17:18:26.558Z,11.10
2019-05-02T17:20:56.933Z,10.97
2019-05-02T17:23:26.503Z,11.70
2019-05-02T17:25:55.773Z,11.70
2019-05-02T17:28:25.166Z,12.20
2019-05-02T17:30:54.563Z,9.73
2019-05-02T17:33:23.833Z,9.47
2019-05-02T17:35:54.283Z,8.97
2019-05-02T17:38:28.901Z,10.60
2019-05-02T17:40:59.271Z,8.83
2019-05-02T17:43:25.842Z,9.60
2019-05-02T17:45:56.475Z,10.97
2019-05-02T17:48:25.901Z,11.10
2019-05-02T17:51:16.967Z,11.77
2019-05-02T17:53:49.797Z,14.13
2019-05-02T17:56:20.966Z,16.23
2019-05-02T17:58:54.251Z,10.90
2019-05-02T18:01:26.517Z,12.73
2019-05-02T18:03:56.203Z,10.03
2019-05-02T18:06:32.996Z,10.27
2019-05-02T18:08:56.417Z,9.03
2019-05-02T18:11:29.559Z,22.27
2019-05-02T18:13:56.738Z,15.60
2019-05-02T18:16:25.995Z,16.30
2019-05-02T18:18:55.272Z,9.03
2019-05-02T18:21:27.529Z,10.93
2019-05-02T18:23:57.075Z,8.87
2019-05-02T18:26:26.461Z,10.00
2019-05-02T18:28:57.245Z,10.73
2019-05-02T18:31:26.534Z,22.20
2019-05-02T18:33:55.969Z,28.77
2019-05-02T18:36:26.906Z,20.23
2019-05-02T18:39:00.657Z,19.03
2019-05-02T18:41:27.402Z,63.63
2019-05-02T18:43:56.646Z,44.20
2019-05-02T18:46:25.917Z,48.33
2019-05-02T18:48:55.236Z,25.13
2019-05-02T18:51:24.461Z,18.23
2019-05-02T18:53:57.870Z,16.37
2019-05-02T18:56:24.690Z,15.27
2019-05-02T18:58:54.140Z,14.63
2019-05-02T19:01:23.447Z,12.10
2019-05-02T19:03:56.198Z,13.13
2019-05-02T19:06:27.988Z,15.27
2019-05-02T19:08:57.656Z,15.50
2019-05-02T19:11:33.710Z,17.33
2019-05-02T19:14:02.563Z,17.37
2019-05-02T19:16:31.893Z,16.20
2019-05-02T19:19:01.762Z,15.10
2019-05-02T19:21:35.478Z,15.50
2019-05-02T19:24:02.442Z,14.90
2019-05-02T19:26:32.593Z,15.67
2019-05-02T19:29:08.441Z,20.70
2019-05-02T19:31:46.090Z,20.00
2019-05-02T19:34:16.728Z,18.97
2019-05-02T19:36:46.099Z,19.17
2019-05-02T19:39:15.350Z,21.57
2019-05-02T19:41:45.688Z,25.40
2019-05-02T19:44:15.480Z,23.00
2019-05-02T19:46:45.432Z,18.30
2019-05-02T19:49:16.284Z,19.30
2019-05-02T19:51:50.315Z,22.73
2019-05-02T19:54:17.155Z,27.37
2019-05-02T19:56:47.624Z,117.67
2019-05-02T19:59:22.503Z,85.70
2019-05-02T20:01:49.747Z,42.40
2019-05-02T20:04:19.166Z,30.50
2019-05-02T20:06:48.447Z,42.37
2019-05-02T20:09:17.693Z,41.20
2019-05-02T20:11:46.973Z,58.47
2019-05-02T20:14:16.404Z,49.67
2019-05-02T20:16:52.900Z,44.60
2019-05-02T20:19:26.931Z,31.40
2019-05-02T20:22:12.027Z,25.77
2019-05-02T20:24:59.858Z,26.20
2019-05-02T20:27:27.910Z,44.93
2019-05-02T20:29:56.194Z,43.30
2019-05-02T20:32:25.600Z,41.10
2019-05-02T20:34:55.101Z,32.20
2019-05-02T20:37:24.406Z,78.87
2019-05-02T20:39:53.723Z,33.70
2019-05-02T20:42:23.839Z,33.33
2019-05-02T20:44:53.216Z,36.07
2019-05-02T20:47:25.466Z,28.20
2019-05-02T20:49:54.720Z,21.50
2019-05-02T20:52:24.046Z,21.17
2019-05-02T20:54:53.314Z,23.50
2019-05-02T20:57:22.679Z,31.73
2019-05-02T20:59:52.631Z,31.33
2019-05-02T21:02:22.353Z,22.90
2019-05-02T21:04:52.240Z,22.30
2019-05-02T21:07:42.376Z,23.60
2019-05-02T21:10:34.105Z,21.53
2019-05-02T21:13:03.453Z,24.50
2019-05-02T21:15:32.698Z,22.63
2019-05-02T21:18:02.327Z,23.13
2019-05-02T21:20:32.540Z,22.53
2019-05-02T21:23:02.334Z,25.43
2019-05-02T21:25:32.598Z,23.47
2019-05-02T21:28:02.827Z,20.87
2019-05-02T21:30:32.438Z,22.07
2019-05-02T21:33:02.854Z,21.67
2019-05-02T21:35:32.574Z,20.57
2019-05-02T21:38:02.189Z,19.90
2019-05-02T21:40:32.702Z,20.67
2019-05-02T21:43:02.544Z,21.63
2019-05-02T21:45:31.867Z,24.97
2019-05-02T21:48:02.317Z,29.30
2019-05-02T21:51:03.108Z,26.77
2019-05-02T21:53:58.409Z,25.00
2019-05-02T21:56:43.476Z,21.93
2019-05-02T21:59:12.919Z,21.70
2019-05-02T22:01:51.895Z,21.23
2019-05-02T22:04:22.435Z,20.00
2019-05-02T22:06:52.364Z,19.07
2019-05-02T22:09:23.172Z,20.17
2019-05-02T22:11:52.774Z,20.63
2019-05-02T22:14:22.532Z,20.70
2019-05-02T22:16:53.057Z,21.07
2019-05-02T22:19:22.487Z,24.07
2019-05-02T22:21:52.473Z,21.77
2019-05-02T22:24:21.887Z,20.40
2019-05-02T22:26:52.629Z,21.30
2019-05-02T22:29:22.003Z,21.30
2019-05-02T22:31:52.179Z,23.30
2019-05-02T22:34:22.155Z,34.53
2019-05-02T22:36:53.847Z,23.83
2019-05-02T22:39:43.127Z,18.70
2019-05-02T22:42:12.872Z,19.70
2019-05-02T22:44:42.318Z,20.60
2019-05-02T22:47:14.023Z,17.93
2019-05-02T22:49:42.778Z,17.53
2019-05-02T22:52:14.145Z,17.43
2019-05-02T22:54:43.082Z,15.43
2019-05-02T22:57:14.342Z,15.47
2019-05-02T22:59:43.241Z,15.27
2019-05-02T23:02:13.058Z,15.30
2019-05-02T23:04:42.316Z,15.93
2019-05-02T23:07:12.664Z,16.67
2019-05-02T23:09:43.698Z,31.20
2019-05-02T23:12:13.233Z,26.93
2019-05-02T23:14:42.645Z,25.40
2019-05-02T23:17:12.772Z,29.17
2019-05-02T23:19:42.483Z,25.33
2019-05-02T23:22:12.761Z,15.93
2019-05-02T23:25:14.324Z,20.30
2019-05-02T23:27:56.102Z,17.97
2019-05-02T23:30:25.455Z,17.70
2019-05-02T23:32:54.787Z,18.00
2019-05-02T23:35:24.033Z,17.90
2019-05-02T23:37:53.298Z,17.40
2019-05-02T23:40:22.576Z,17.53
2019-05-02T23:42:52.408Z,17.13
2019-05-02T23:45:22.571Z,16.10
2019-05-02T23:47:52.778Z,17.23
2019-05-02T23:50:22.875Z,16.70
2019-05-02T23:52:52.397Z,15.57
2019-05-02T23:55:22.852Z,14.77
2019-05-02T23:57:52.490Z,16.13
